sensor_id;sensor_type;location;lat;lon;timestamp;temperature;humidity
16517;DHT22;8371;52.272;9.746;2022-09-23T00:01:55;11.10;56.40
16517;DHT22;8371;52.272;9.746;2022-09-23T00:04:22;11.00;56.50
16517;DHT22;8371;52.272;9.746;2022-09-23T00:06:48;11.00;56.50
16517;DHT22;8371;52.272;9.746;2022-09-23T00:09:14;11.00;56.60
16517;DHT22;8371;52.272;9.746;2022-09-23T00:11:39;10.90;56.60
16517;DHT22;8371;52.272;9.746;2022-09-23T00:14:05;10.90;56.70
16517;DHT22;8371;52.272;9.746;2022-09-23T00:16:33;10.80;56.70
16517;DHT22;8371;52.272;9.746;2022-09-23T00:19:00;10.80;56.80
16517;DHT22;8371;52.272;9.746;2022-09-23T00:21:27;10.80;56.80
16517;DHT22;8371;52.272;9.746;2022-09-23T00:23:53;10.80;56.90
16517;DHT22;8371;52.272;9.746;2022-09-23T00:26:20;10.70;57.00
16517;DHT22;8371;52.272;9.746;2022-09-23T00:28:46;10.70;57.60
16517;DHT22;8371;52.272;9.746;2022-09-23T00:31:15;10.70;57.70
16517;DHT22;8371;52.272;9.746;2022-09-23T00:33:42;10.70;57.10
16517;DHT22;8371;52.272;9.746;2022-09-23T00:36:10;10.70;57.20
16517;DHT22;8371;52.272;9.746;2022-09-23T00:38:37;10.60;57.20
16517;DHT22;8371;52.272;9.746;2022-09-23T00:41:03;10.70;57.30
16517;DHT22;8371;52.272;9.746;2022-09-23T00:43:38;10.60;57.40
16517;DHT22;8371;52.272;9.746;2022-09-23T00:46:05;10.60;57.40
16517;DHT22;8371;52.272;9.746;2022-09-23T00:48:34;10.60;57.40
16517;DHT22;8371;52.272;9.746;2022-09-23T00:51:03;10.60;57.40
16517;DHT22;8371;52.272;9.746;2022-09-23T00:53:29;10.60;57.50
16517;DHT22;8371;52.272;9.746;2022-09-23T00:56:01;10.50;57.50
16517;DHT22;8371;52.272;9.746;2022-09-23T00:58:30;10.50;57.60
16517;DHT22;8371;52.272;9.746;2022-09-23T01:01:00;10.50;57.60
16517;DHT22;8371;52.272;9.746;2022-09-23T01:03:26;10.50;57.70
16517;DHT22;8371;52.272;9.746;2022-09-23T01:05:53;10.50;57.70
16517;DHT22;8371;52.272;9.746;2022-09-23T01:08:21;10.50;57.70
16517;DHT22;8371;52.272;9.746;2022-09-23T01:11:03;10.50;57.70
16517;DHT22;8371;52.272;9.746;2022-09-23T01:16:23;10.40;57.70
16517;DHT22;8371;52.272;9.746;2022-09-23T01:18:56;10.40;57.80
16517;DHT22;8371;52.272;9.746;2022-09-23T01:21:28;10.40;57.80
16517;DHT22;8371;52.272;9.746;2022-09-23T01:24:10;10.30;57.90
16517;DHT22;8371;52.272;9.746;2022-09-23T01:32:25;10.30;58.70
16517;DHT22;8371;52.272;9.746;2022-09-23T01:34:57;10.20;58.00
16517;DHT22;8371;52.272;9.746;2022-09-23T01:37:27;10.20;58.10
16517;DHT22;8371;52.272;9.746;2022-09-23T01:40:13;10.20;58.10
16517;DHT22;8371;52.272;9.746;2022-09-23T01:47:54;10.20;58.30
16517;DHT22;8371;52.272;9.746;2022-09-23T01:50:24;10.10;58.30
16517;DHT22;8371;52.272;9.746;2022-09-23T01:53:18;10.10;58.40
16517;DHT22;8371;52.272;9.746;2022-09-23T01:55:47;10.10;58.40
16517;DHT22;8371;52.272;9.746;2022-09-23T01:58:18;10.10;58.60
16517;DHT22;8371;52.272;9.746;2022-09-23T02:00:56;10.10;58.60
16517;DHT22;8371;52.272;9.746;2022-09-23T02:03:33;10.10;58.70
16517;DHT22;8371;52.272;9.746;2022-09-23T02:06:03;10.10;58.70
16517;DHT22;8371;52.272;9.746;2022-09-23T02:08:32;10.20;58.70
16517;DHT22;8371;52.272;9.746;2022-09-23T02:11:07;10.20;58.80
16517;DHT22;8371;52.272;9.746;2022-09-23T02:13:53;10.20;58.90
16517;DHT22;8371;52.272;9.746;2022-09-23T02:19:17;10.20;58.90
16517;DHT22;8371;52.272;9.746;2022-09-23T02:21:44;10.20;58.80
16517;DHT22;8371;52.272;9.746;2022-09-23T02:24:19;10.30;58.90
16517;DHT22;8371;52.272;9.746;2022-09-23T02:32:37;10.40;58.90
16517;DHT22;8371;52.272;9.746;2022-09-23T02:35:24;10.40;58.80
16517;DHT22;8371;52.272;9.746;2022-09-23T02:38:17;10.40;58.80
16517;DHT22;8371;52.272;9.746;2022-09-23T02:40:56;10.40;58.70
16517;DHT22;8371;52.272;9.746;2022-09-23T02:43:25;10.40;58.70
16517;DHT22;8371;52.272;9.746;2022-09-23T02:45:52;10.40;58.70
16517;DHT22;8371;52.272;9.746;2022-09-23T02:48:24;10.40;58.70
16517;DHT22;8371;52.272;9.746;2022-09-23T02:50:51;10.40;58.70
16517;DHT22;8371;52.272;9.746;2022-09-23T02:53:17;10.40;58.70
16517;DHT22;8371;52.272;9.746;2022-09-23T02:55:43;10.40;58.70
16517;DHT22;8371;52.272;9.746;2022-09-23T02:58:11;10.50;58.80
16517;DHT22;8371;52.272;9.746;2022-09-23T03:06:08;10.50;58.90
16517;DHT22;8371;52.272;9.746;2022-09-23T03:08:56;10.40;58.90
16517;DHT22;8371;52.272;9.746;2022-09-23T03:11:21;10.50;58.90
16517;DHT22;8371;52.272;9.746;2022-09-23T03:14:11;10.50;58.90
16517;DHT22;8371;52.272;9.746;2022-09-23T03:16:42;10.50;58.90
16517;DHT22;8371;52.272;9.746;2022-09-23T03:21:44;10.50;59.00
16517;DHT22;8371;52.272;9.746;2022-09-23T03:24:10;10.50;59.00
16517;DHT22;8371;52.272;9.746;2022-09-23T03:26:39;10.50;59.00
16517;DHT22;8371;52.272;9.746;2022-09-23T03:29:08;10.60;59.10
16517;DHT22;8371;52.272;9.746;2022-09-23T03:31:37;10.60;59.20
16517;DHT22;8371;52.272;9.746;2022-09-23T03:34:08;10.60;59.20
16517;DHT22;8371;52.272;9.746;2022-09-23T03:36:38;10.60;59.20
16517;DHT22;8371;52.272;9.746;2022-09-23T03:39:26;10.60;58.50
16517;DHT22;8371;52.272;9.746;2022-09-23T03:41:53;10.60;59.10
16517;DHT22;8371;52.272;9.746;2022-09-23T03:44:20;10.70;59.20
16517;DHT22;8371;52.272;9.746;2022-09-23T03:46:46;10.60;59.20
16517;DHT22;8371;52.272;9.746;2022-09-23T03:49:26;10.70;59.20
16517;DHT22;8371;52.272;9.746;2022-09-23T03:51:53;10.70;59.20
16517;DHT22;8371;52.272;9.746;2022-09-23T03:54:19;10.70;59.30
16517;DHT22;8371;52.272;9.746;2022-09-23T03:56:45;10.70;59.20
16517;DHT22;8371;52.272;9.746;2022-09-23T03:59:14;10.70;59.30
16517;DHT22;8371;52.272;9.746;2022-09-23T04:01:41;10.70;59.30
16517;DHT22;8371;52.272;9.746;2022-09-23T04:04:07;10.80;59.30
16517;DHT22;8371;52.272;9.746;2022-09-23T04:06:33;10.80;59.30
16517;DHT22;8371;52.272;9.746;2022-09-23T04:09:00;10.80;59.30
16517;DHT22;8371;52.272;9.746;2022-09-23T04:11:28;10.80;59.30
16517;DHT22;8371;52.272;9.746;2022-09-23T04:13:54;10.80;59.50
16517;DHT22;8371;52.272;9.746;2022-09-23T04:16:21;10.80;59.30
16517;DHT22;8371;52.272;9.746;2022-09-23T04:18:48;10.90;59.40
16517;DHT22;8371;52.272;9.746;2022-09-23T04:21:14;10.90;59.40
16517;DHT22;8371;52.272;9.746;2022-09-23T04:23:40;10.90;59.50
16517;DHT22;8371;52.272;9.746;2022-09-23T04:26:06;10.90;59.40
16517;DHT22;8371;52.272;9.746;2022-09-23T04:28:32;10.90;59.40
16517;DHT22;8371;52.272;9.746;2022-09-23T04:31:04;10.90;59.30
16517;DHT22;8371;52.272;9.746;2022-09-23T04:33:30;10.90;59.30
16517;DHT22;8371;52.272;9.746;2022-09-23T04:35:55;10.90;59.30
16517;DHT22;8371;52.272;9.746;2022-09-23T04:38:21;10.90;59.50
16517;DHT22;8371;52.272;9.746;2022-09-23T04:40:48;10.90;59.30
16517;DHT22;8371;52.272;9.746;2022-09-23T04:43:15;11.00;59.40
16517;DHT22;8371;52.272;9.746;2022-09-23T04:45:41;10.90;59.30
16517;DHT22;8371;52.272;9.746;2022-09-23T04:48:08;11.00;59.50
16517;DHT22;8371;52.272;9.746;2022-09-23T04:50:35;11.00;59.40
16517;DHT22;8371;52.272;9.746;2022-09-23T04:53:02;11.00;59.40
16517;DHT22;8371;52.272;9.746;2022-09-23T04:55:28;11.00;59.50
16517;DHT22;8371;52.272;9.746;2022-09-23T04:57:54;11.00;59.40
16517;DHT22;8371;52.272;9.746;2022-09-23T05:00:20;11.00;59.40
16517;DHT22;8371;52.272;9.746;2022-09-23T05:02:47;11.00;59.40
16517;DHT22;8371;52.272;9.746;2022-09-23T05:05:15;11.00;59.60
16517;DHT22;8371;52.272;9.746;2022-09-23T05:07:43;11.00;59.50
16517;DHT22;8371;52.272;9.746;2022-09-23T05:10:08;11.00;59.50
16517;DHT22;8371;52.272;9.746;2022-09-23T05:12:34;11.00;60.30
16517;DHT22;8371;52.272;9.746;2022-09-23T05:15:00;11.00;59.60
16517;DHT22;8371;52.272;9.746;2022-09-23T05:17:25;11.00;59.60
16517;DHT22;8371;52.272;9.746;2022-09-23T05:19:52;11.10;59.60
16517;DHT22;8371;52.272;9.746;2022-09-23T05:22:18;11.00;59.60
16517;DHT22;8371;52.272;9.746;2022-09-23T05:24:43;11.10;59.60
16517;DHT22;8371;52.272;9.746;2022-09-23T05:27:09;11.10;59.60
16517;DHT22;8371;52.272;9.746;2022-09-23T05:29:35;11.00;59.70
16517;DHT22;8371;52.272;9.746;2022-09-23T05:32:00;11.10;59.70
16517;DHT22;8371;52.272;9.746;2022-09-23T05:34:27;11.10;59.70
16517;DHT22;8371;52.272;9.746;2022-09-23T05:36:53;11.10;59.80
16517;DHT22;8371;52.272;9.746;2022-09-23T05:39:18;11.10;59.80
16517;DHT22;8371;52.272;9.746;2022-09-23T05:41:44;11.20;60.00
16517;DHT22;8371;52.272;9.746;2022-09-23T05:44:10;11.20;60.00
16517;DHT22;8371;52.272;9.746;2022-09-23T05:46:35;11.30;60.20
16517;DHT22;8371;52.272;9.746;2022-09-23T05:49:01;11.30;60.30
16517;DHT22;8371;52.272;9.746;2022-09-23T05:51:29;11.40;60.20
16517;DHT22;8371;52.272;9.746;2022-09-23T05:53:55;11.50;60.30
16517;DHT22;8371;52.272;9.746;2022-09-23T05:56:24;11.50;60.30
16517;DHT22;8371;52.272;9.746;2022-09-23T05:58:52;11.60;60.50
16517;DHT22;8371;52.272;9.746;2022-09-23T06:01:21;11.70;60.50
16517;DHT22;8371;52.272;9.746;2022-09-23T06:03:53;11.80;60.50
16517;DHT22;8371;52.272;9.746;2022-09-23T06:06:26;11.90;60.70
16517;DHT22;8371;52.272;9.746;2022-09-23T06:08:52;12.00;61.30
16517;DHT22;8371;52.272;9.746;2022-09-23T06:11:17;12.20;60.50
16517;DHT22;8371;52.272;9.746;2022-09-23T06:13:45;12.30;60.50
16517;DHT22;8371;52.272;9.746;2022-09-23T06:16:12;12.40;60.40
16517;DHT22;8371;52.272;9.746;2022-09-23T06:18:42;12.50;61.00
16517;DHT22;8371;52.272;9.746;2022-09-23T06:21:14;12.60;60.20
16517;DHT22;8371;52.272;9.746;2022-09-23T06:23:40;12.70;60.00
16517;DHT22;8371;52.272;9.746;2022-09-23T06:26:07;12.80;59.90
16517;DHT22;8371;52.272;9.746;2022-09-23T06:28:35;12.90;59.90
16517;DHT22;8371;52.272;9.746;2022-09-23T06:31:04;13.00;60.00
16517;DHT22;8371;52.272;9.746;2022-09-23T06:33:32;13.10;59.80
16517;DHT22;8371;52.272;9.746;2022-09-23T06:36:01;13.20;59.80
16517;DHT22;8371;52.272;9.746;2022-09-23T06:38:27;13.30;59.60
16517;DHT22;8371;52.272;9.746;2022-09-23T06:40:56;13.40;59.60
16517;DHT22;8371;52.272;9.746;2022-09-23T06:43:24;13.50;60.20
16517;DHT22;8371;52.272;9.746;2022-09-23T06:48:22;13.60;59.30
16517;DHT22;8371;52.272;9.746;2022-09-23T06:50:49;13.70;59.20
16517;DHT22;8371;52.272;9.746;2022-09-23T06:53:16;13.80;59.20
16517;DHT22;8371;52.272;9.746;2022-09-23T06:55:42;13.80;59.10
16517;DHT22;8371;52.272;9.746;2022-09-23T06:58:08;13.90;59.10
16517;DHT22;8371;52.272;9.746;2022-09-23T07:00:34;13.90;59.00
16517;DHT22;8371;52.272;9.746;2022-09-23T07:03:00;14.00;59.10
16517;DHT22;8371;52.272;9.746;2022-09-23T07:05:26;14.10;59.00
16517;DHT22;8371;52.272;9.746;2022-09-23T07:07:52;14.10;59.00
16517;DHT22;8371;52.272;9.746;2022-09-23T07:10:18;14.20;59.00
16517;DHT22;8371;52.272;9.746;2022-09-23T07:12:43;14.20;58.90
16517;DHT22;8371;52.272;9.746;2022-09-23T07:15:10;14.30;58.90
16517;DHT22;8371;52.272;9.746;2022-09-23T07:17:36;14.40;58.90
16517;DHT22;8371;52.272;9.746;2022-09-23T07:20:02;14.40;58.90
16517;DHT22;8371;52.272;9.746;2022-09-23T07:22:28;14.50;58.90
16517;DHT22;8371;52.272;9.746;2022-09-23T07:24:53;14.60;58.90
16517;DHT22;8371;52.272;9.746;2022-09-23T07:27:23;14.60;58.80
16517;DHT22;8371;52.272;9.746;2022-09-23T07:29:49;14.70;58.80
16517;DHT22;8371;52.272;9.746;2022-09-23T07:32:17;14.80;58.90
16517;DHT22;8371;52.272;9.746;2022-09-23T07:34:43;14.90;58.80
16517;DHT22;8371;52.272;9.746;2022-09-23T07:37:10;15.10;58.90
16517;DHT22;8371;52.272;9.746;2022-09-23T07:39:35;15.20;58.90
16517;DHT22;8371;52.272;9.746;2022-09-23T07:42:02;15.30;58.80
16517;DHT22;8371;52.272;9.746;2022-09-23T07:44:29;15.50;58.60
16517;DHT22;8371;52.272;9.746;2022-09-23T07:46:57;15.70;58.50
16517;DHT22;8371;52.272;9.746;2022-09-23T07:49:23;15.80;58.40
16517;DHT22;8371;52.272;9.746;2022-09-23T07:51:49;16.00;58.40
16517;DHT22;8371;52.272;9.746;2022-09-23T07:54:16;16.10;58.20
16517;DHT22;8371;52.272;9.746;2022-09-23T07:56:42;16.30;58.10
16517;DHT22;8371;52.272;9.746;2022-09-23T07:59:11;16.50;57.90
16517;DHT22;8371;52.272;9.746;2022-09-23T08:01:50;16.60;57.80
16517;DHT22;8371;52.272;9.746;2022-09-23T08:04:25;16.80;57.70
16517;DHT22;8371;52.272;9.746;2022-09-23T08:06:55;16.90;57.70
16517;DHT22;8371;52.272;9.746;2022-09-23T08:09:24;17.10;57.50
16517;DHT22;8371;52.272;9.746;2022-09-23T08:11:50;17.30;57.40
16517;DHT22;8371;52.272;9.746;2022-09-23T08:14:16;17.40;57.20
16517;DHT22;8371;52.272;9.746;2022-09-23T08:16:44;17.60;56.90
16517;DHT22;8371;52.272;9.746;2022-09-23T08:19:10;17.80;56.80
16517;DHT22;8371;52.272;9.746;2022-09-23T08:21:37;18.00;56.70
16517;DHT22;8371;52.272;9.746;2022-09-23T08:24:05;18.20;56.50
16517;DHT22;8371;52.272;9.746;2022-09-23T08:26:31;18.30;56.30
16517;DHT22;8371;52.272;9.746;2022-09-23T08:28:59;18.50;56.10
16517;DHT22;8371;52.272;9.746;2022-09-23T08:31:25;18.50;55.90
16517;DHT22;8371;52.272;9.746;2022-09-23T08:33:55;18.70;55.60
16517;DHT22;8371;52.272;9.746;2022-09-23T08:36:22;18.80;55.40
16517;DHT22;8371;52.272;9.746;2022-09-23T08:38:48;18.90;55.40
16517;DHT22;8371;52.272;9.746;2022-09-23T08:44:17;19.10;55.20
16517;DHT22;8371;52.272;9.746;2022-09-23T08:46:55;19.20;55.10
16517;DHT22;8371;52.272;9.746;2022-09-23T08:49:24;19.40;55.10
16517;DHT22;8371;52.272;9.746;2022-09-23T08:51:51;19.50;55.00
16517;DHT22;8371;52.272;9.746;2022-09-23T08:54:19;19.60;55.00
16517;DHT22;8371;52.272;9.746;2022-09-23T08:56:48;19.80;55.00
16517;DHT22;8371;52.272;9.746;2022-09-23T08:59:37;20.00;54.80
16517;DHT22;8371;52.272;9.746;2022-09-23T09:02:16;20.10;54.60
16517;DHT22;8371;52.272;9.746;2022-09-23T09:04:42;20.30;54.40
16517;DHT22;8371;52.272;9.746;2022-09-23T09:07:17;20.40;54.30
16517;DHT22;8371;52.272;9.746;2022-09-23T09:12:25;20.70;54.20
16517;DHT22;8371;52.272;9.746;2022-09-23T09:14:57;20.80;53.70
16517;DHT22;8371;52.272;9.746;2022-09-23T09:17:53;20.90;53.50
16517;DHT22;8371;52.272;9.746;2022-09-23T09:20:23;21.10;53.50
16517;DHT22;8371;52.272;9.746;2022-09-23T09:22:52;21.30;53.30
16517;DHT22;8371;52.272;9.746;2022-09-23T09:27:57;21.40;53.00
16517;DHT22;8371;52.272;9.746;2022-09-23T09:30:23;21.60;52.70
16517;DHT22;8371;52.272;9.746;2022-09-23T09:33:01;21.70;52.20
16517;DHT22;8371;52.272;9.746;2022-09-23T09:38:12;21.90;52.40
16517;DHT22;8371;52.272;9.746;2022-09-23T09:40:41;22.10;52.40
16517;DHT22;8371;52.272;9.746;2022-09-23T09:43:07;22.20;52.30
16517;DHT22;8371;52.272;9.746;2022-09-23T09:48:33;22.60;51.90
16517;DHT22;8371;52.272;9.746;2022-09-23T09:51:14;22.80;51.80
16517;DHT22;8371;52.272;9.746;2022-09-23T09:53:29;23.00;51.80
16517;DHT22;8371;52.272;9.746;2022-09-23T09:56:08;23.10;51.60
16517;DHT22;8371;52.272;9.746;2022-09-23T10:01:18;23.60;51.20
16517;DHT22;8371;52.272;9.746;2022-09-23T10:03:44;23.70;51.10
16517;DHT22;8371;52.272;9.746;2022-09-23T10:06:23;24.00;50.90
16517;DHT22;8371;52.272;9.746;2022-09-23T10:08:47;24.20;50.60
16517;DHT22;8371;52.272;9.746;2022-09-23T10:11:16;24.40;50.30
16517;DHT22;8371;52.272;9.746;2022-09-23T10:16:27;24.70;49.90
16517;DHT22;8371;52.272;9.746;2022-09-23T10:18:55;25.00;49.40
16517;DHT22;8371;52.272;9.746;2022-09-23T10:21:30;25.20;49.10
16517;DHT22;8371;52.272;9.746;2022-09-23T10:23:56;25.30;48.60
16517;DHT22;8371;52.272;9.746;2022-09-23T10:26:32;25.40;48.60
16517;DHT22;8371;52.272;9.746;2022-09-23T10:29:01;25.60;48.30
16517;DHT22;8371;52.272;9.746;2022-09-23T10:31:33;25.60;47.80
16517;DHT22;8371;52.272;9.746;2022-09-23T10:34:17;25.70;47.70
16517;DHT22;8371;52.272;9.746;2022-09-23T10:36:31;25.90;47.70
16517;DHT22;8371;52.272;9.746;2022-09-23T10:38:59;26.00;47.60
16517;DHT22;8371;52.272;9.746;2022-09-23T10:41:36;26.10;47.60
16517;DHT22;8371;52.272;9.746;2022-09-23T10:44:33;26.20;47.20
16517;DHT22;8371;52.272;9.746;2022-09-23T10:47:24;26.30;46.90
16517;DHT22;8371;52.272;9.746;2022-09-23T10:50:03;26.40;46.30
16517;DHT22;8371;52.272;9.746;2022-09-23T11:03:35;26.60;45.50
16517;DHT22;8371;52.272;9.746;2022-09-23T11:06:17;26.60;45.30
16517;DHT22;8371;52.272;9.746;2022-09-23T11:14:30;26.70;45.00
16517;DHT22;8371;52.272;9.746;2022-09-23T11:17:20;26.70;45.10
16517;DHT22;8371;52.272;9.746;2022-09-23T11:28:39;27.00;44.70
16517;DHT22;8371;52.272;9.746;2022-09-23T11:36:39;27.30;44.20
16517;DHT22;8371;52.272;9.746;2022-09-23T11:42:00;27.50;44.10
16517;DHT22;8371;52.272;9.746;2022-09-23T11:44:32;27.60;43.70
16517;DHT22;8371;52.272;9.746;2022-09-23T11:47:02;27.70;43.20
16517;DHT22;8371;52.272;9.746;2022-09-23T11:49:37;27.80;43.20
16517;DHT22;8371;52.272;9.746;2022-09-23T11:52:20;27.80;43.20
16517;DHT22;8371;52.272;9.746;2022-09-23T11:57:25;28.00;42.80
16517;DHT22;8371;52.272;9.746;2022-09-23T11:59:50;28.10;42.60
16517;DHT22;8371;52.272;9.746;2022-09-23T12:05:14;28.20;42.20
16517;DHT22;8371;52.272;9.746;2022-09-23T12:07:53;28.20;42.00
16517;DHT22;8371;52.272;9.746;2022-09-23T12:10:21;28.30;41.90
16517;DHT22;8371;52.272;9.746;2022-09-23T12:12:57;28.30;41.40
16517;DHT22;8371;52.272;9.746;2022-09-23T12:18:18;28.20;41.10
16517;DHT22;8371;52.272;9.746;2022-09-23T12:23:45;28.10;40.40
16517;DHT22;8371;52.272;9.746;2022-09-23T12:26:13;28.00;39.80
16517;DHT22;8371;52.272;9.746;2022-09-23T12:28:44;27.80;40.30
16517;DHT22;8371;52.272;9.746;2022-09-23T12:31:13;27.60;40.00
16517;DHT22;8371;52.272;9.746;2022-09-23T12:33:48;27.50;40.20
16517;DHT22;8371;52.272;9.746;2022-09-23T12:36:15;27.40;40.00
16517;DHT22;8371;52.272;9.746;2022-09-23T12:38:47;27.20;39.90
16517;DHT22;8371;52.272;9.746;2022-09-23T12:41:34;27.10;39.70
16517;DHT22;8371;52.272;9.746;2022-09-23T12:44:14;27.00;39.70
16517;DHT22;8371;52.272;9.746;2022-09-23T12:46:42;26.80;39.80
16517;DHT22;8371;52.272;9.746;2022-09-23T12:49:34;26.60;39.80
16517;DHT22;8371;52.272;9.746;2022-09-23T12:54:46;26.40;40.00
16517;DHT22;8371;52.272;9.746;2022-09-23T13:00:24;26.30;39.60
16517;DHT22;8371;52.272;9.746;2022-09-23T13:02:58;26.30;40.10
16517;DHT22;8371;52.272;9.746;2022-09-23T13:05:51;26.30;40.10
16517;DHT22;8371;52.272;9.746;2022-09-23T13:08:38;26.20;40.00
16517;DHT22;8371;52.272;9.746;2022-09-23T13:11:28;26.20;40.20
16517;DHT22;8371;52.272;9.746;2022-09-23T13:13:44;26.20;40.20
16517;DHT22;8371;52.272;9.746;2022-09-23T13:16:32;26.20;40.00
16517;DHT22;8371;52.272;9.746;2022-09-23T13:32:10;26.00;39.90
16517;DHT22;8371;52.272;9.746;2022-09-23T13:34:37;26.00;40.00
16517;DHT22;8371;52.272;9.746;2022-09-23T13:37:17;25.90;40.00
16517;DHT22;8371;52.272;9.746;2022-09-23T13:39:44;26.00;40.00
16517;DHT22;8371;52.272;9.746;2022-09-23T13:42:24;25.90;39.60
16517;DHT22;8371;52.272;9.746;2022-09-23T13:44:56;25.90;39.80
16517;DHT22;8371;52.272;9.746;2022-09-23T13:47:26;25.90;39.60
16517;DHT22;8371;52.272;9.746;2022-09-23T13:49:53;25.80;39.60
16517;DHT22;8371;52.272;9.746;2022-09-23T13:52:28;25.80;39.70
16517;DHT22;8371;52.272;9.746;2022-09-23T13:54:55;25.70;39.60
16517;DHT22;8371;52.272;9.746;2022-09-23T13:57:29;25.60;39.80
16517;DHT22;8371;52.272;9.746;2022-09-23T14:00:00;25.60;39.60
16517;DHT22;8371;52.272;9.746;2022-09-23T14:02:26;25.60;39.90
16517;DHT22;8371;52.272;9.746;2022-09-23T14:04:56;25.60;39.80
16517;DHT22;8371;52.272;9.746;2022-09-23T14:07:23;25.60;39.80
16517;DHT22;8371;52.272;9.746;2022-09-23T14:09:51;25.60;39.80
16517;DHT22;8371;52.272;9.746;2022-09-23T14:12:18;25.60;39.70
16517;DHT22;8371;52.272;9.746;2022-09-23T14:14:47;25.60;39.90
16517;DHT22;8371;52.272;9.746;2022-09-23T14:17:17;25.60;39.80
16517;DHT22;8371;52.272;9.746;2022-09-23T14:19:43;25.70;40.10
16517;DHT22;8371;52.272;9.746;2022-09-23T14:22:25;25.70;40.10
16517;DHT22;8371;52.272;9.746;2022-09-23T14:24:51;25.70;39.70
16517;DHT22;8371;52.272;9.746;2022-09-23T14:27:33;25.80;39.70
16517;DHT22;8371;52.272;9.746;2022-09-23T14:29:57;25.80;39.70
16517;DHT22;8371;52.272;9.746;2022-09-23T14:32:25;25.70;39.50
16517;DHT22;8371;52.272;9.746;2022-09-23T14:45:44;25.50;39.40
16517;DHT22;8371;52.272;9.746;2022-09-23T14:48:23;25.40;39.50
16517;DHT22;8371;52.272;9.746;2022-09-23T14:50:56;25.30;39.30
16517;DHT22;8371;52.272;9.746;2022-09-23T14:53:31;25.20;39.50
16517;DHT22;8371;52.272;9.746;2022-09-23T14:56:18;25.20;39.40
16517;DHT22;8371;52.272;9.746;2022-09-23T14:58:50;25.10;39.60
16517;DHT22;8371;52.272;9.746;2022-09-23T15:03:58;24.90;39.60
16517;DHT22;8371;52.272;9.746;2022-09-23T15:06:25;24.80;39.80
16517;DHT22;8371;52.272;9.746;2022-09-23T15:08:51;24.70;39.80
16517;DHT22;8371;52.272;9.746;2022-09-23T15:11:20;24.60;39.90
16517;DHT22;8371;52.272;9.746;2022-09-23T15:13:48;24.50;40.00
16517;DHT22;8371;52.272;9.746;2022-09-23T15:16:23;24.40;40.00
16517;DHT22;8371;52.272;9.746;2022-09-23T15:18:51;24.30;39.90
16517;DHT22;8371;52.272;9.746;2022-09-23T15:21:17;24.20;40.10
16517;DHT22;8371;52.272;9.746;2022-09-23T15:26:15;24.00;40.20
16517;DHT22;8371;52.272;9.746;2022-09-23T15:28:41;24.00;40.40
16517;DHT22;8371;52.272;9.746;2022-09-23T15:31:11;23.90;40.70
16517;DHT22;8371;52.272;9.746;2022-09-23T15:33:37;23.80;40.80
16517;DHT22;8371;52.272;9.746;2022-09-23T15:36:03;23.70;41.20
16517;DHT22;8371;52.272;9.746;2022-09-23T15:38:29;23.60;40.70
16517;DHT22;8371;52.272;9.746;2022-09-23T15:40:55;23.50;40.90
16517;DHT22;8371;52.272;9.746;2022-09-23T15:43:23;23.40;40.90
16517;DHT22;8371;52.272;9.746;2022-09-23T15:45:51;23.30;41.00
16517;DHT22;8371;52.272;9.746;2022-09-23T15:48:26;23.20;41.00
16517;DHT22;8371;52.272;9.746;2022-09-23T15:50:52;23.20;41.20
16517;DHT22;8371;52.272;9.746;2022-09-23T15:53:21;23.10;41.10
16517;DHT22;8371;52.272;9.746;2022-09-23T15:55:48;23.00;41.30
16517;DHT22;8371;52.272;9.746;2022-09-23T15:58:18;22.90;41.30
16517;DHT22;8371;52.272;9.746;2022-09-23T16:00:44;22.80;41.50
16517;DHT22;8371;52.272;9.746;2022-09-23T16:03:13;22.70;41.50
16517;DHT22;8371;52.272;9.746;2022-09-23T16:05:42;22.70;41.70
16517;DHT22;8371;52.272;9.746;2022-09-23T16:08:10;22.50;41.60
16517;DHT22;8371;52.272;9.746;2022-09-23T16:10:36;22.50;41.70
16517;DHT22;8371;52.272;9.746;2022-09-23T16:13:04;22.40;41.70
16517;DHT22;8371;52.272;9.746;2022-09-23T16:15:31;22.40;41.80
16517;DHT22;8371;52.272;9.746;2022-09-23T16:17:57;22.20;41.90
16517;DHT22;8371;52.272;9.746;2022-09-23T16:20:24;22.10;41.80
16517;DHT22;8371;52.272;9.746;2022-09-23T16:22:59;22.10;42.00
16517;DHT22;8371;52.272;9.746;2022-09-23T16:25:23;22.00;42.00
16517;DHT22;8371;52.272;9.746;2022-09-23T16:27:51;22.00;42.10
16517;DHT22;8371;52.272;9.746;2022-09-23T16:30:19;21.80;42.10
16517;DHT22;8371;52.272;9.746;2022-09-23T16:32:44;21.80;42.10
16517;DHT22;8371;52.272;9.746;2022-09-23T16:35:10;21.70;42.20
16517;DHT22;8371;52.272;9.746;2022-09-23T16:37:36;21.70;42.30
16517;DHT22;8371;52.272;9.746;2022-09-23T16:40:01;21.60;42.30
16517;DHT22;8371;52.272;9.746;2022-09-23T16:42:28;21.50;42.40
16517;DHT22;8371;52.272;9.746;2022-09-23T16:44:54;21.50;42.40
16517;DHT22;8371;52.272;9.746;2022-09-23T16:47:19;21.40;42.50
16517;DHT22;8371;52.272;9.746;2022-09-23T16:49:45;21.30;42.60
16517;DHT22;8371;52.272;9.746;2022-09-23T16:52:11;21.30;42.70
16517;DHT22;8371;52.272;9.746;2022-09-23T16:54:38;21.20;42.90
16517;DHT22;8371;52.272;9.746;2022-09-23T16:57:04;21.10;43.00
16517;DHT22;8371;52.272;9.746;2022-09-23T16:59:30;21.00;43.10
16517;DHT22;8371;52.272;9.746;2022-09-23T17:01:57;21.00;43.30
16517;DHT22;8371;52.272;9.746;2022-09-23T17:04:41;20.90;43.40
16517;DHT22;8371;52.272;9.746;2022-09-23T17:07:07;20.80;43.50
16517;DHT22;8371;52.272;9.746;2022-09-23T17:09:33;20.60;43.60
16517;DHT22;8371;52.272;9.746;2022-09-23T17:12:05;20.60;43.60
16517;DHT22;8371;52.272;9.746;2022-09-23T17:14:31;20.50;43.70
16517;DHT22;8371;52.272;9.746;2022-09-23T17:16:58;20.50;43.90
16517;DHT22;8371;52.272;9.746;2022-09-23T17:19:23;20.40;44.20
16517;DHT22;8371;52.272;9.746;2022-09-23T17:21:49;20.30;44.40
16517;DHT22;8371;52.272;9.746;2022-09-23T17:24:15;20.20;44.50
16517;DHT22;8371;52.272;9.746;2022-09-23T17:26:40;20.20;44.60
16517;DHT22;8371;52.272;9.746;2022-09-23T17:29:08;20.10;44.80
16517;DHT22;8371;52.272;9.746;2022-09-23T17:31:33;20.00;44.80
16517;DHT22;8371;52.272;9.746;2022-09-23T17:33:59;19.90;45.00
16517;DHT22;8371;52.272;9.746;2022-09-23T17:36:25;19.90;45.10
16517;DHT22;8371;52.272;9.746;2022-09-23T17:38:52;19.80;45.20
16517;DHT22;8371;52.272;9.746;2022-09-23T17:41:19;19.70;45.30
16517;DHT22;8371;52.272;9.746;2022-09-23T17:43:45;19.60;45.40
16517;DHT22;8371;52.272;9.746;2022-09-23T17:46:13;19.60;45.50
16517;DHT22;8371;52.272;9.746;2022-09-23T17:48:41;19.50;45.60
16517;DHT22;8371;52.272;9.746;2022-09-23T17:51:13;19.40;45.70
16517;DHT22;8371;52.272;9.746;2022-09-23T17:53:39;19.40;45.90
16517;DHT22;8371;52.272;9.746;2022-09-23T17:56:17;19.30;46.00
16517;DHT22;8371;52.272;9.746;2022-09-23T17:58:43;19.20;46.10
16517;DHT22;8371;52.272;9.746;2022-09-23T18:01:15;19.20;46.30
16517;DHT22;8371;52.272;9.746;2022-09-23T18:03:41;19.10;46.30
16517;DHT22;8371;52.272;9.746;2022-09-23T18:06:16;19.00;46.40
16517;DHT22;8371;52.272;9.746;2022-09-23T18:08:44;19.00;46.60
16517;DHT22;8371;52.272;9.746;2022-09-23T18:11:21;18.90;46.90
16517;DHT22;8371;52.272;9.746;2022-09-23T18:13:49;18.80;47.10